Nabulus, West Bank
Current Conditions -  °F | °C
As of 6:20 PM on Friday 24 Oct 2014 (Local Time) from LLBG Reporting Station
Clear Clear  
Wind Chill: 77°   Ceiling: Unl
Heat Index: 79°   Visibility: 6mi
Dew Point: 55°   Wind: 5mph
Humidity: 47%   Direction: 10°N
Pressure: 30"   Gusts: NA
Location:  32.23°N, 35.27°E
Report Text: LLBG 241520Z 01004KT CAVOK 25/13 Q1016 NOSIG
Loading
Personal Weather Stations






























Interactive Weather Map
Tropical Storm Tracking
New forecast layout! Learn more

10-Day Weather Forecast

Advertisements
Track Severe Weather on mobile